Time;durP1;ratioP1;P1;durP2;ratioP2;P2;SDS_P1;SDS_P2;PMS_P1;PMS_P2;Temp;Humidity;BMP_temperature;BMP_pressure;BME280_temperature;BME280_humidity;BME280_pressure;Samples;Min_cycle;Max_cycle;Signal;HPM_P1;HPM_P2
2022/01/23 00:00:50;;;;;;;16.25;5.13;;;5.50;99.90;;;;;;5132553;27;20489;-78
2022/01/23 00:03:18;;;;;;;16.30;4.68;;;5.50;99.90;;;;;;5125943;27;20051;-77
2022/01/23 00:05:45;;;;;;;27.80;5.63;;;5.40;99.90;;;;;;5137728;27;20081;-78
2022/01/23 00:08:14;;;;;;;9.80;5.43;;;5.40;99.90;;;;;;5128462;27;20074;-78
2022/01/23 00:10:41;;;;;;;17.05;4.50;;;5.50;99.90;;;;;;5139162;27;20047;-77
2022/01/23 00:13:11;;;;;;;11.93;4.10;;;5.50;99.90;;;;;;5143233;27;20434;-77
2022/01/23 00:18:22;;;;;;;7.47;3.80;;;5.50;99.90;;;;;;5115620;27;20037;-77
2022/01/23 00:20:49;;;;;;;12.07;4.30;;;5.50;99.90;;;;;;5151688;27;20050;-78
2022/01/23 00:23:28;;;;;;;16.20;3.90;;;5.50;99.90;;;;;;5143624;27;20474;-77
2022/01/23 00:31:23;;;;;;;7.78;4.07;;;5.50;99.90;;;;;;5127271;27;20051;-78
2022/01/23 00:33:51;;;;;;;9.15;3.88;;;5.50;99.90;;;;;;5128418;27;20045;-76
2022/01/23 00:36:18;;;;;;;7.13;3.80;;;5.50;99.90;;;;;;5153040;27;20053;-78
2022/01/23 00:38:44;;;;;;;7.82;3.92;;;5.50;99.90;;;;;;5137417;27;20051;-78
2022/01/23 00:41:11;;;;;;;6.57;3.80;;;5.50;99.90;;;;;;5123371;27;20050;-78
2022/01/23 00:43:41;;;;;;;14.05;3.88;;;5.50;99.90;;;;;;5143676;27;20054;-78
2022/01/23 00:46:22;;;;;;;8.05;3.80;;;5.50;99.90;;;;;;5116157;27;20043;-77
2022/01/23 00:49:03;;;;;;;6.72;3.72;;;5.50;99.90;;;;;;5147513;27;20055;-77
2022/01/23 00:51:30;;;;;;;5.18;3.92;;;5.50;99.90;;;;;;5128994;27;20042;-78
2022/01/23 00:53:56;;;;;;;10.45;4.55;;;5.50;99.90;;;;;;5153657;27;20054;-77
2022/01/23 00:56:23;;;;;;;4.82;3.30;;;5.50;99.90;;;;;;5144133;27;20059;-77
2022/01/23 00:58:49;;;;;;;6.07;3.75;;;5.50;99.90;;;;;;5123950;27;20046;-77
2022/01/23 01:01:16;;;;;;;10.90;5.50;;;5.50;99.90;;;;;;5135776;27;20058;-78
2022/01/23 01:03:42;;;;;;;8.60;3.92;;;5.50;99.90;;;;;;5134917;27;20050;-78
2022/01/23 01:06:09;;;;;;;6.18;3.45;;;5.50;99.90;;;;;;5135309;27;20047;-77
2022/01/23 01:08:35;;;;;;;11.77;4.35;;;5.50;99.90;;;;;;5143837;27;20043;-76
2022/01/23 01:11:19;;;;;;;12.43;4.63;;;5.50;99.90;;;;;;5133952;27;20042;-77
2022/01/23 01:14:06;;;;;;;7.15;3.50;;;5.40;99.90;;;;;;5133134;27;20043;-77
2022/01/23 01:16:52;;;;;;;10.48;3.65;;;5.50;99.90;;;;;;5143732;27;20043;-77
2022/01/23 01:30:25;;;;;;;9.68;3.88;;;5.40;99.90;;;;;;5145229;27;20094;-77
2022/01/23 01:33:02;;;;;;;7.18;4.10;;;5.40;99.90;;;;;;5117335;27;20130;-78
2022/01/23 01:35:33;;;;;;;13.95;4.45;;;5.40;99.90;;;;;;5139258;27;20043;-77
2022/01/23 01:38:00;;;;;;;5.93;3.60;;;5.40;99.90;;;;;;5136375;27;20122;-76
2022/01/23 01:40:26;;;;;;;6.60;4.78;;;5.50;99.90;;;;;;5148542;27;20051;-78
2022/01/23 01:42:53;;;;;;;9.18;4.82;;;5.40;99.90;;;;;;5119778;28;20050;-77
2022/01/23 01:45:19;;;;;;;7.25;4.53;;;5.40;99.90;;;;;;5113644;27;20055;-78
2022/01/23 01:47:46;;;;;;;8.88;3.90;;;5.40;99.90;;;;;;5111249;28;20055;-78
2022/01/23 01:50:12;;;;;;;7.80;4.40;;;5.50;99.90;;;;;;5117983;28;20054;-78
2022/01/23 01:52:41;;;;;;;11.90;4.40;;;5.40;99.90;;;;;;5128837;28;20088;-77
2022/01/23 01:55:09;;;;;;;7.82;4.47;;;5.50;99.90;;;;;;5122009;28;20070;-77
2022/01/23 01:57:42;;;;;;;9.00;4.35;;;5.50;99.90;;;;;;5125326;28;20116;-78
2022/01/23 02:00:15;;;;;;;8.02;3.65;;;5.50;99.90;;;;;;5128475;28;20134;-78
2022/01/23 02:03:06;;;;;;;9.07;3.65;;;5.50;99.90;;;;;;5111366;28;20064;-78
2022/01/23 02:08:27;;;;;;;12.43;5.07;;;5.40;99.90;;;;;;5112342;28;20089;-78
2022/01/23 02:10:57;;;;;;;10.32;4.35;;;5.40;99.90;;;;;;5126339;27;20079;-78
2022/01/23 02:13:29;;;;;;;13.10;3.90;;;5.40;99.90;;;;;;5115945;27;20050;-78
2022/01/23 02:22:29;;;;;;;6.70;4.07;;;5.40;99.90;;;;;;5114860;27;20459;-78
2022/01/23 02:51:41;;;;;;;8.85;4.10;;;5.40;99.90;;;;;;5129927;27;20096;-78
2022/01/23 02:54:25;;;;;;;7.40;4.20;;;5.40;99.90;;;;;;5156074;27;20050;-77
2022/01/23 02:56:54;;;;;;;9.45;4.72;;;5.40;99.90;;;;;;5124451;27;20147;-78
2022/01/23 02:59:24;;;;;;;5.15;3.55;;;5.40;99.90;;;;;;5153229;27;20481;-78
2022/01/23 03:02:02;;;;;;;8.63;4.88;;;5.40;99.90;;;;;;5141113;27;20122;-78
2022/01/23 03:04:29;;;;;;;7.60;4.35;;;5.40;99.90;;;;;;5126081;27;20047;-78
2022/01/23 03:07:10;;;;;;;5.97;4.28;;;5.40;99.90;;;;;;5146089;27;20085;-78
2022/01/23 03:09:58;;;;;;;;;;;5.40;99.90;;;;;;5117329;27;20058;-78
2022/01/23 03:15:14;;;;;;;9.02;4.15;;;5.40;99.90;;;;;;5093527;27;20058;-78
2022/01/23 03:31:32;;;;;;;21.20;5.07;;;5.30;99.90;;;;;;5123591;27;20051;-76
2022/01/23 03:33:58;;;;;;;9.70;3.70;;;5.40;99.90;;;;;;5135400;27;20039;-76
2022/01/23 03:36:25;;;;;;;6.38;3.78;;;5.40;99.90;;;;;;5149352;27;20069;-78
2022/01/23 03:38:51;;;;;;;4.82;3.50;;;5.40;99.90;;;;;;5140525;27;20492;-77
2022/01/23 03:41:18;;;;;;;8.55;4.60;;;5.40;99.90;;;;;;5143496;27;20177;-76
2022/01/23 03:43:45;;;;;;;5.80;4.45;;;5.40;99.90;;;;;;5122153;27;20157;-78
2022/01/23 03:46:23;;;;;;;10.75;4.38;;;5.40;99.90;;;;;;5140699;27;20047;-78
2022/01/23 03:51:35;;;;;;;5.00;3.95;;;5.40;99.90;;;;;;5145025;27;20058;-78
2022/01/23 03:54:01;;;;;;;7.18;4.80;;;5.40;99.90;;;;;;5139993;27;20047;-77
2022/01/23 03:56:30;;;;;;;13.57;4.18;;;5.40;99.90;;;;;;5117016;27;20058;-78
2022/01/23 03:58:57;;;;;;;4.22;3.83;;;5.40;99.90;;;;;;5128955;27;20091;-77
2022/01/23 04:01:23;;;;;;;10.55;4.85;;;5.40;99.90;;;;;;5117259;27;20054;-77
2022/01/23 04:03:51;;;;;;;10.57;4.90;;;5.40;99.90;;;;;;5130029;27;20054;-77
2022/01/23 04:06:18;;;;;;;10.88;5.28;;;5.40;99.90;;;;;;5144092;27;20053;-78
2022/01/23 04:08:44;;;;;;;6.43;4.47;;;5.40;99.90;;;;;;5147075;27;20054;-78
2022/01/23 04:11:11;;;;;;;6.82;4.15;;;5.40;99.90;;;;;;5153906;27;20053;-78
2022/01/23 04:13:45;;;;;;;9.68;4.25;;;5.40;99.90;;;;;;5122020;27;20379;-78
2022/01/23 04:16:31;;;;;;;9.35;5.25;;;5.40;99.90;;;;;;5147753;27;20055;-78
2022/01/23 04:19:15;;;;;;;8.65;4.45;;;5.40;99.90;;;;;;5138907;27;20408;-78
2022/01/23 04:33:09;;;;;;;5.38;3.90;;;5.40;99.90;;;;;;5074900;27;20095;-78
2022/01/23 04:45:09;;;;;;;6.85;4.70;;;5.40;99.90;;;;;;5130575;27;20129;-78
2022/01/23 04:47:42;;;;;;;9.20;4.53;;;5.40;99.90;;;;;;5149599;27;20047;-77
2022/01/23 05:00:53;;;;;;;7.25;3.95;;;5.40;99.90;;;;;;5126940;27;20474;-77
2022/01/23 05:06:24;;;;;;;11.85;4.22;;;5.30;99.90;;;;;;5140138;27;20053;-77
2022/01/23 05:08:51;;;;;;;8.00;3.85;;;5.30;99.90;;;;;;5125497;27;20047;-77
2022/01/23 05:11:17;;;;;;;5.75;4.00;;;5.30;99.90;;;;;;5115485;27;20047;-78
2022/01/23 05:13:44;;;;;;;9.40;4.90;;;5.30;99.90;;;;;;5129751;27;20043;-78
2022/01/23 05:16:11;;;;;;;7.22;4.40;;;5.30;99.90;;;;;;5145436;27;20049;-78
2022/01/23 05:18:37;;;;;;;8.88;4.70;;;5.40;99.90;;;;;;5118486;27;20050;-78
2022/01/23 05:21:15;;;;;;;6.70;4.53;;;5.30;99.90;;;;;;5124507;27;20050;-77
2022/01/23 05:23:42;;;;;;;8.05;4.43;;;5.30;99.90;;;;;;5138173;27;20153;-78
2022/01/23 05:26:08;;;;;;;7.28;4.75;;;5.30;99.90;;;;;;5147203;27;20051;-78
2022/01/23 05:28:35;;;;;;;8.38;4.10;;;5.30;99.90;;;;;;5129929;27;20043;-78
2022/01/23 05:31:02;;;;;;;7.55;4.10;;;5.30;99.90;;;;;;5139305;27;20047;-77
2022/01/23 05:33:28;;;;;;;6.07;4.10;;;5.30;99.90;;;;;;5131852;27;20050;-77
2022/01/23 05:35:55;;;;;;;10.52;4.72;;;5.30;99.90;;;;;;5123489;27;20047;-77
2022/01/23 05:38:21;;;;;;;8.57;4.63;;;5.30;99.90;;;;;;5136599;27;20482;-77
2022/01/23 05:40:55;;;;;;;12.60;4.63;;;5.30;99.90;;;;;;5140499;27;20069;-78
2022/01/23 05:43:22;;;;;;;7.13;4.70;;;5.30;99.90;;;;;;5144374;27;20122;-77
2022/01/23 05:45:49;;;;;;;6.45;4.03;;;5.30;99.90;;;;;;5140921;27;20043;-78
2022/01/23 05:48:15;;;;;;;9.60;4.72;;;5.30;99.90;;;;;;5136432;27;20059;-77
2022/01/23 05:50:42;;;;;;;4.95;3.75;;;5.30;99.90;;;;;;5144549;27;20050;-78
2022/01/23 05:53:08;;;;;;;9.70;5.07;;;5.20;99.90;;;;;;5147888;27;20081;-78
2022/01/23 05:55:35;;;;;;;6.68;5.03;;;5.20;99.90;;;;;;5127599;27;20050;-77
2022/01/23 05:58:01;;;;;;;13.93;4.45;;;5.20;99.90;;;;;;5146957;27;20047;-77
2022/01/23 06:00:28;;;;;;;18.15;5.30;;;5.20;99.90;;;;;;5142275;27;20047;-77
2022/01/23 06:02:54;;;;;;;8.50;4.35;;;5.10;99.90;;;;;;5138356;27;20103;-78
2022/01/23 06:05:21;;;;;;;17.65;5.28;;;5.10;99.90;;;;;;5121861;27;20069;-77
2022/01/23 06:07:50;;;;;;;11.40;4.93;;;5.10;99.90;;;;;;5134089;27;20062;-78
2022/01/23 06:10:22;;;;;;;11.73;4.88;;;5.10;99.90;;;;;;5114082;28;20055;-78
2022/01/23 06:12:49;;;;;;;13.90;5.68;;;5.10;99.90;;;;;;5113753;28;20062;-77
2022/01/23 06:15:15;;;;;;;12.55;4.97;;;5.10;99.90;;;;;;5139050;27;20043;-78
2022/01/23 06:17:42;;;;;;;9.27;4.13;;;5.00;99.90;;;;;;5139304;27;20127;-78
2022/01/23 06:20:10;;;;;;;5.35;3.97;;;5.00;99.90;;;;;;5116768;28;20039;-78
2022/01/23 06:22:37;;;;;;;5.72;3.80;;;4.90;99.90;;;;;;5132986;27;20043;-77
2022/01/23 06:25:05;;;;;;;6.05;4.28;;;4.90;99.90;;;;;;5128326;27;20061;-78
2022/01/23 06:27:32;;;;;;;10.80;5.30;;;4.90;99.90;;;;;;5122796;28;20449;-77
2022/01/23 06:29:58;;;;;;;8.80;4.60;;;4.90;99.90;;;;;;5135887;27;20042;-77
2022/01/23 06:32:25;;;;;;;8.73;5.32;;;4.90;99.90;;;;;;5120406;28;20047;-77
2022/01/23 06:34:51;;;;;;;7.45;4.43;;;4.80;99.90;;;;;;5114256;27;20047;-77
2022/01/23 06:37:18;;;;;;;6.60;4.65;;;4.80;99.90;;;;;;5133620;27;20055;-78
2022/01/23 06:39:44;;;;;;;11.00;5.03;;;4.80;99.90;;;;;;5145781;27;20049;-77
2022/01/23 06:42:11;;;;;;;15.10;5.95;;;4.70;99.90;;;;;;5143260;27;20047;-77
2022/01/23 06:44:38;;;;;;;10.38;5.25;;;4.70;99.90;;;;;;5133489;27;20047;-77
2022/01/23 06:47:04;;;;;;;7.72;5.63;;;4.70;99.90;;;;;;5124601;27;20062;-77
2022/01/23 06:49:31;;;;;;;10.80;5.53;;;4.70;99.90;;;;;;5148702;27;20050;-77
2022/01/23 06:51:57;;;;;;;9.52;6.20;;;4.60;99.90;;;;;;5120007;27;20059;-77
2022/01/23 06:54:24;;;;;;;11.13;5.15;;;4.70;99.90;;;;;;5139978;27;20074;-77
2022/01/23 06:56:50;;;;;;;10.55;5.80;;;4.70;99.90;;;;;;5121524;27;20042;-78
2022/01/23 06:59:17;;;;;;;12.40;5.50;;;4.60;99.90;;;;;;5125523;27;20376;-77
2022/01/23 07:01:43;;;;;;;18.77;5.93;;;4.60;99.90;;;;;;5129570;27;20509;-77
2022/01/23 07:04:10;;;;;;;8.20;5.15;;;4.50;99.90;;;;;;5125907;27;20394;-76
2022/01/23 07:06:36;;;;;;;11.07;5.93;;;4.60;99.90;;;;;;5136815;27;20047;-76
2022/01/23 07:09:03;;;;;;;18.25;6.57;;;4.60;99.90;;;;;;5117304;27;20062;-77
2022/01/23 07:11:29;;;;;;;14.23;6.85;;;4.50;99.90;;;;;;5130549;27;20498;-76
2022/01/23 07:13:56;;;;;;;9.32;5.88;;;4.50;99.90;;;;;;5135447;27;20042;-77
2022/01/23 07:16:23;;;;;;;7.88;5.88;;;4.50;99.90;;;;;;5151612;27;20047;-77
2022/01/23 07:18:49;;;;;;;7.75;4.97;;;4.50;99.90;;;;;;5125940;27;20058;-77
2022/01/23 07:21:16;;;;;;;7.15;5.40;;;4.50;99.90;;;;;;5135362;27;20062;-77
2022/01/23 07:23:49;;;;;;;8.82;5.40;;;4.50;99.90;;;;;;5117286;27;20051;-77
2022/01/23 07:26:16;;;;;;;10.68;5.43;;;4.50;99.90;;;;;;5148458;27;20145;-77
2022/01/23 07:28:44;;;;;;;9.18;5.30;;;4.50;99.90;;;;;;5151070;27;20118;-77
2022/01/23 07:31:13;;;;;;;8.02;5.30;;;4.50;99.90;;;;;;5141078;27;20544;-77
2022/01/23 07:33:39;;;;;;;14.70;6.38;;;4.50;99.90;;;;;;5135265;27;20051;-77
2022/01/23 07:36:06;;;;;;;9.88;5.80;;;4.50;99.90;;;;;;5147788;27;20054;-77
2022/01/23 07:38:32;;;;;;;17.65;6.43;;;4.60;99.90;;;;;;5152506;27;20046;-77
2022/01/23 07:40:59;;;;;;;10.50;6.47;;;4.60;99.90;;;;;;5121721;27;20047;-78
2022/01/23 07:43:25;;;;;;;8.77;5.72;;;4.60;99.90;;;;;;5147794;27;20116;-77
2022/01/23 07:45:52;;;;;;;16.92;6.57;;;4.60;99.90;;;;;;5131990;27;20047;-77
2022/01/23 07:48:19;;;;;;;11.65;6.35;;;4.60;99.90;;;;;;5149101;27;20065;-77
2022/01/23 07:50:45;;;;;;;9.93;6.85;;;4.60;99.90;;;;;;5150316;27;20481;-78
2022/01/23 07:53:12;;;;;;;12.95;6.68;;;4.70;99.90;;;;;;5150300;27;20379;-78
2022/01/23 07:55:38;;;;;;;10.80;6.20;;;4.70;99.90;;;;;;5132302;27;20054;-77
2022/01/23 07:58:12;;;;;;;7.68;5.47;;;4.70;99.90;;;;;;5132639;27;20133;-77
2022/01/23 08:00:39;;;;;;;11.23;6.07;;;4.70;99.90;;;;;;5152991;27;20190;-77
2022/01/23 08:03:05;;;;;;;10.95;6.57;;;4.70;99.90;;;;;;5133975;27;20061;-77
2022/01/23 08:05:32;;;;;;;12.00;5.70;;;4.80;99.90;;;;;;5132530;27;20057;-78
2022/01/23 08:07:58;;;;;;;12.75;6.05;;;4.80;99.90;;;;;;5151779;27;20046;-77
2022/01/23 08:10:25;;;;;;;14.10;6.38;;;4.90;99.90;;;;;;5133853;27;20047;-77
2022/01/23 08:12:51;;;;;;;11.57;6.60;;;4.90;99.90;;;;;;5151849;27;20046;-77
2022/01/23 08:15:18;;;;;;;10.07;6.05;;;4.90;99.90;;;;;;5151817;27;20058;-77
2022/01/23 08:17:45;;;;;;;10.77;6.90;;;4.80;99.90;;;;;;5134225;27;20073;-77
2022/01/23 08:20:11;;;;;;;15.18;6.03;;;4.90;99.90;;;;;;5152227;27;20045;-78
2022/01/23 08:22:38;;;;;;;10.70;7.30;;;4.90;99.90;;;;;;5133924;27;20042;-77
2022/01/23 08:25:05;;;;;;;12.07;6.07;;;4.90;99.90;;;;;;5151790;27;20051;-78
2022/01/23 08:27:31;;;;;;;9.05;6.82;;;4.90;99.90;;;;;;5133881;27;20045;-78
2022/01/23 08:29:58;;;;;;;12.68;6.47;;;5.00;99.90;;;;;;5133904;27;20046;-78
2022/01/23 08:32:24;;;;;;;13.35;6.93;;;5.10;99.90;;;;;;5131405;27;20100;-78
2022/01/23 08:34:51;;;;;;;7.43;6.15;;;5.10;99.90;;;;;;5132219;27;20043;-78
2022/01/23 08:37:18;;;;;;;8.50;6.32;;;5.20;99.90;;;;;;5153110;27;20064;-78
2022/01/23 08:39:45;;;;;;;10.02;5.28;;;5.20;99.90;;;;;;5116518;27;20058;-78
2022/01/23 08:42:11;;;;;;;9.63;6.25;;;5.20;99.90;;;;;;5127411;27;20379;-76
2022/01/23 08:44:38;;;;;;;7.03;5.72;;;5.20;99.90;;;;;;5148134;27;20053;-78
2022/01/23 08:47:04;;;;;;;8.77;5.43;;;5.20;99.90;;;;;;5147677;27;20051;-78
2022/01/23 08:49:31;;;;;;;7.72;5.78;;;5.20;99.90;;;;;;5149973;27;20046;-77
2022/01/23 08:51:57;;;;;;;7.57;5.38;;;5.30;99.90;;;;;;5132494;27;20047;-77
2022/01/23 08:54:24;;;;;;;10.40;5.43;;;5.30;99.90;;;;;;5133695;27;20068;-78
2022/01/23 08:56:50;;;;;;;9.75;5.28;;;5.30;99.90;;;;;;5149083;27;20042;-78
2022/01/23 08:59:17;;;;;;;8.35;5.53;;;5.40;99.90;;;;;;5152197;27;20047;-78
2022/01/23 09:01:43;;;;;;;9.73;5.43;;;5.40;99.90;;;;;;5152994;27;20047;-77
2022/01/23 09:04:12;;;;;;;14.57;7.40;;;5.40;99.90;;;;;;5149291;27;20054;-77
2022/01/23 09:06:39;;;;;;;10.93;5.75;;;5.40;99.90;;;;;;5133594;27;20386;-78
2022/01/23 09:09:07;;;;;;;9.07;5.85;;;5.40;99.90;;;;;;5132995;27;20483;-78
2022/01/23 09:11:41;;;;;;;7.60;4.85;;;5.40;99.90;;;;;;5133034;27;20058;-76
2022/01/23 09:14:09;;;;;;;9.63;5.20;;;5.50;99.90;;;;;;5152717;27;20142;-78
2022/01/23 09:16:35;;;;;;;8.48;5.18;;;5.50;99.90;;;;;;5134317;27;20134;-77
2022/01/23 09:19:02;;;;;;;6.78;4.95;;;5.50;99.90;;;;;;5151921;27;20042;-77
2022/01/23 09:21:28;;;;;;;6.93;4.65;;;5.50;99.90;;;;;;5129105;27;20133;-77
2022/01/23 09:23:55;;;;;;;5.68;5.05;;;5.60;99.90;;;;;;5131660;27;20046;-78
2022/01/23 09:26:23;;;;;;;5.43;4.28;;;5.60;99.90;;;;;;5149764;27;20047;-77
2022/01/23 09:28:49;;;;;;;7.13;4.38;;;5.70;99.90;;;;;;5127305;27;20047;-78
2022/01/23 09:31:26;;;;;;;7.90;4.65;;;5.70;99.90;;;;;;5119804;27;20050;-76
2022/01/23 09:33:52;;;;;;;11.73;5.03;;;5.70;99.90;;;;;;5145742;27;20054;-78
2022/01/23 09:36:19;;;;;;;5.90;4.35;;;5.80;99.90;;;;;;5146452;27;20065;-78
2022/01/23 09:38:46;;;;;;;7.28;4.93;;;5.80;99.90;;;;;;5127842;27;20050;-78
2022/01/23 09:41:12;;;;;;;5.35;4.47;;;5.80;99.90;;;;;;5129514;27;20042;-78
2022/01/23 09:43:39;;;;;;;6.68;5.13;;;5.90;99.90;;;;;;5130085;27;20039;-78
2022/01/23 09:46:05;;;;;;;6.13;3.97;;;5.90;99.90;;;;;;5125790;27;20064;-78
2022/01/23 09:48:32;;;;;;;5.40;4.30;;;5.90;99.90;;;;;;5127055;27;20054;-78
2022/01/23 09:50:58;;;;;;;8.13;4.18;;;6.00;99.90;;;;;;5131269;27;20055;-78
2022/01/23 09:53:25;;;;;;;7.00;4.60;;;6.00;99.90;;;;;;5126613;27;20128;-78
2022/01/23 09:55:53;;;;;;;4.57;2.90;;;6.00;99.90;;;;;;5146825;27;20043;-78
2022/01/23 09:58:20;;;;;;;5.82;3.85;;;6.10;99.90;;;;;;5145256;27;20054;-78
2022/01/23 10:00:46;;;;;;;8.85;4.47;;;6.10;99.90;;;;;;5134993;27;20051;-77
2022/01/23 10:03:15;;;;;;;6.63;3.85;;;6.10;99.90;;;;;;5120863;27;20050;-78
2022/01/23 10:05:41;;;;;;;7.38;3.80;;;6.20;99.90;;;;;;5129194;27;20405;-77
2022/01/23 10:08:08;;;;;;;5.85;3.53;;;6.20;99.90;;;;;;5119181;27;20073;-77
2022/01/23 10:10:39;;;;;;;6.55;2.72;;;6.20;99.90;;;;;;5142294;27;20082;-78
2022/01/23 10:13:06;;;;;;;5.13;3.35;;;6.30;99.90;;;;;;5143708;27;20054;-78
2022/01/23 10:15:32;;;;;;;3.65;2.40;;;6.30;99.90;;;;;;5144943;27;20051;-78
2022/01/23 10:17:59;;;;;;;3.22;2.30;;;6.30;99.90;;;;;;5124165;27;20047;-78
2022/01/23 10:20:25;;;;;;;5.50;2.90;;;6.40;99.90;;;;;;5140507;27;20055;-78
2022/01/23 10:22:52;;;;;;;3.13;2.15;;;6.40;99.90;;;;;;5131084;27;20051;-77
2022/01/23 10:25:19;;;;;;;6.20;2.08;;;6.50;99.90;;;;;;5122807;27;20131;-78
2022/01/23 10:27:45;;;;;;;3.00;2.30;;;6.50;99.90;;;;;;5123138;27;20078;-76
2022/01/23 10:30:12;;;;;;;3.20;2.25;;;6.50;99.90;;;;;;5147984;27;20051;-77
2022/01/23 10:32:38;;;;;;;8.45;1.83;;;6.60;99.90;;;;;;5122372;27;20043;-78
2022/01/23 10:35:05;;;;;;;2.38;2.05;;;6.60;99.90;;;;;;5150433;27;20051;-78
2022/01/23 10:37:32;;;;;;;4.50;2.05;;;6.60;99.90;;;;;;5126658;27;20065;-77
2022/01/23 10:39:58;;;;;;;3.78;1.65;;;6.70;99.90;;;;;;5124201;27;20046;-78
2022/01/23 10:47:56;;;;;;;2.25;2.05;;;6.80;99.90;;;;;;5120061;27;20061;-78
2022/01/23 10:50:22;;;;;;;2.03;1.40;;;6.80;99.90;;;;;;5124554;27;20792;-78
2022/01/23 10:52:51;;;;;;;1.55;0.95;;;6.80;99.90;;;;;;5122230;27;21201;-78
2022/01/23 10:55:17;;;;;;;1.17;1.02;;;6.90;99.90;;;;;;5150022;27;20158;-78
2022/01/23 10:57:44;;;;;;;2.05;1.25;;;6.90;99.90;;;;;;5131066;27;20061;-75
2022/01/23 11:00:10;;;;;;;1.75;0.70;;;6.90;99.90;;;;;;5130577;27;20042;-77
2022/01/23 11:02:37;;;;;;;1.30;0.77;;;6.90;99.90;;;;;;5130954;27;20054;-77
2022/01/23 11:05:03;;;;;;;4.97;1.02;;;7.00;99.90;;;;;;5147922;27;20057;-78
2022/01/23 11:07:30;;;;;;;1.33;1.13;;;7.00;99.90;;;;;;5147815;27;20047;-77
2022/01/23 11:09:57;;;;;;;1.35;1.00;;;6.90;99.90;;;;;;5145503;27;20061;-77
2022/01/23 11:12:31;;;;;;;1.52;1.02;;;7.00;99.90;;;;;;5150562;27;20047;-77
2022/01/23 11:17:38;;;;;;;1.73;0.73;;;7.00;99.90;;;;;;5103272;27;20069;-78
2022/01/23 11:20:04;;;;;;;1.83;1.00;;;7.00;99.90;;;;;;5150810;27;20049;-77
2022/01/23 11:22:31;;;;;;;1.05;0.70;;;7.10;99.90;;;;;;5130828;27;20472;-78
2022/01/23 11:24:57;;;;;;;0.95;0.93;;;7.10;99.90;;;;;;5130982;27;20500;-78
2022/01/23 11:27:24;;;;;;;2.03;1.10;;;7.10;99.90;;;;;;5125523;27;20086;-78
2022/01/23 11:29:51;;;;;;;1.15;0.63;;;7.10;99.90;;;;;;5131151;27;20115;-77
2022/01/23 11:32:17;;;;;;;7.25;1.13;;;7.10;99.90;;;;;;5150693;27;20051;-77
2022/01/23 11:34:44;;;;;;;1.50;0.47;;;7.10;99.90;;;;;;5147597;27;20467;-79
2022/01/23 11:37:11;;;;;;;6.10;0.85;;;7.10;99.90;;;;;;5129321;27;20485;-78
2022/01/23 11:39:38;;;;;;;0.25;0.25;;;7.10;99.90;;;;;;5148961;27;20099;-77
2022/01/23 11:50:44;;;;;;;0.25;0.10;;;7.10;99.90;;;;;;5148353;27;20046;-77
2022/01/23 11:55:55;;;;;;;0.95;0.50;;;7.10;99.90;;;;;;5127463;27;20058;-78
2022/01/23 11:58:22;;;;;;;1.52;0.50;;;7.00;99.90;;;;;;5129151;27;20062;-78
2022/01/23 12:00:48;;;;;;;1.85;0.52;;;7.00;99.90;;;;;;5148242;27;20574;-77
2022/01/23 12:03:15;;;;;;;1.00;0.65;;;7.00;99.90;;;;;;5128134;27;20433;-78
2022/01/23 12:05:43;;;;;;;1.88;0.60;;;7.00;99.90;;;;;;5130657;27;20085;-77
2022/01/23 12:08:10;;;;;;;0.55;0.40;;;7.00;99.90;;;;;;5137838;27;20088;-77
2022/01/23 12:10:51;;;;;;;0.70;0.43;;;7.00;99.90;;;;;;5122424;27;20054;-78
2022/01/23 12:13:21;;;;;;;1.42;0.60;;;7.00;99.90;;;;;;5119234;27;20100;-78
2022/01/23 12:18:33;;;;;;;0.60;0.60;;;6.90;99.90;;;;;;5140253;27;20043;-78
2022/01/23 12:20:59;;;;;;;0.70;0.70;;;6.90;99.90;;;;;;5126475;27;20565;-78
2022/01/23 12:23:26;;;;;;;1.35;0.90;;;6.90;99.90;;;;;;5138415;27;20112;-78
2022/01/23 12:25:52;;;;;;;1.00;0.57;;;6.90;99.90;;;;;;5114578;27;20058;-77
2022/01/23 12:28:21;;;;;;;1.20;0.85;;;6.80;99.90;;;;;;5128001;27;20058;-77
2022/01/23 12:30:47;;;;;;;1.45;0.90;;;6.80;99.90;;;;;;5130192;27;20046;-77
2022/01/23 12:33:14;;;;;;;1.15;1.05;;;6.80;99.90;;;;;;5138639;27;20047;-78
2022/01/23 12:35:40;;;;;;;0.63;0.63;;;6.80;99.90;;;;;;5119800;27;20053;-78
2022/01/23 12:38:08;;;;;;;1.45;0.93;;;6.70;99.90;;;;;;5145806;27;20054;-78
2022/01/23 12:40:35;;;;;;;1.10;0.85;;;6.80;99.90;;;;;;5136679;27;20042;-77
2022/01/23 12:43:01;;;;;;;3.85;1.00;;;6.70;99.90;;;;;;5129750;27;20085;-77
2022/01/23 12:45:28;;;;;;;4.65;1.35;;;6.70;99.90;;;;;;5121270;27;20047;-78
2022/01/23 12:47:54;;;;;;;5.07;1.40;;;6.80;99.90;;;;;;5124311;27;20062;-78
2022/01/23 12:50:21;;;;;;;0.77;0.70;;;6.70;99.90;;;;;;5140915;27;20055;-78
2022/01/23 12:52:47;;;;;;;1.95;1.17;;;6.70;99.90;;;;;;5125523;27;20066;-78
2022/01/23 12:55:15;;;;;;;3.05;0.93;;;6.70;99.90;;;;;;5143360;27;20702;-78
2022/01/23 12:57:43;;;;;;;1.35;0.80;;;6.60;99.90;;;;;;5127678;27;20047;-79
2022/01/23 13:00:10;;;;;;;1.83;0.77;;;6.60;99.90;;;;;;5127194;27;20046;-79
2022/01/23 13:02:43;;;;;;;15.75;1.17;;;6.60;99.90;;;;;;5115732;27;20055;-79
2022/01/23 13:05:10;;;;;;;1.75;1.10;;;6.60;99.90;;;;;;5119540;27;20499;-79
2022/01/23 13:07:42;;;;;;;0.70;0.60;;;6.60;99.90;;;;;;5140835;27;20078;-79
2022/01/23 13:10:23;;;;;;;1.02;0.70;;;6.60;99.90;;;;;;5116850;27;20470;-79
2022/01/23 13:12:54;;;;;;;3.08;1.27;;;6.50;99.90;;;;;;5125964;27;20046;-78
2022/01/23 13:18:10;;;;;;;5.88;0.77;;;6.50;99.90;;;;;;5119590;27;20055;-79
2022/01/23 13:31:59;;;;;;;2.20;1.63;;;6.60;99.90;;;;;;5056110;28;20064;-78
2022/01/23 13:34:26;;;;;;;3.25;2.90;;;6.60;99.90;;;;;;5114281;27;20739;-79
2022/01/23 13:36:53;;;;;;;1.38;1.25;;;6.60;99.90;;;;;;5121777;27;20046;-79
2022/01/23 13:39:19;;;;;;;1.48;0.70;;;6.60;99.90;;;;;;5141492;27;20509;-78
2022/01/23 13:41:47;;;;;;;1.38;0.82;;;6.60;99.90;;;;;;5135767;27;20065;-79
2022/01/23 13:52:37;;;;;;;1.00;0.63;;;6.60;99.90;;;;;;5135076;27;20047;-77
2022/01/23 13:58:13;;;;;;;9.35;1.23;;;6.70;99.90;;;;;;5147045;27;20084;-77
2022/01/23 14:00:41;;;;;;;1.17;0.93;;;6.70;99.90;;;;;;5132787;27;20055;-77
2022/01/23 14:03:08;;;;;;;2.40;1.33;;;6.60;99.90;;;;;;5134970;27;20043;-77
2022/01/23 14:05:34;;;;;;;1.77;1.00;;;6.70;99.90;;;;;;5135254;27;20043;-77
2022/01/23 14:08:01;;;;;;;0.95;0.90;;;6.70;99.90;;;;;;5123267;27;20082;-77
2022/01/23 14:10:28;;;;;;;1.20;0.70;;;6.70;99.90;;;;;;5148269;27;20047;-78
2022/01/23 14:12:55;;;;;;;1.48;0.95;;;6.60;99.90;;;;;;5133671;27;20493;-77
2022/01/23 14:15:22;;;;;;;1.23;1.13;;;6.60;99.90;;;;;;5127395;27;20047;-78
2022/01/23 14:17:48;;;;;;;0.75;0.70;;;6.60;99.90;;;;;;5134306;27;20061;-77
2022/01/23 14:20:16;;;;;;;2.75;0.82;;;6.60;99.90;;;;;;5130126;27;20062;-77
2022/01/23 14:22:42;;;;;;;1.17;0.82;;;6.60;99.90;;;;;;5151172;27;20047;-77
2022/01/23 14:25:09;;;;;;;1.95;0.98;;;6.60;99.90;;;;;;5133992;27;20047;-77
2022/01/23 14:27:35;;;;;;;1.30;1.00;;;6.60;99.90;;;;;;5124703;27;20050;-77
2022/01/23 14:30:02;;;;;;;2.65;1.42;;;6.60;99.90;;;;;;5143879;27;20073;-77
2022/01/23 14:32:34;;;;;;;5.00;1.27;;;6.60;99.90;;;;;;5123110;27;20047;-77
2022/01/23 14:35:01;;;;;;;1.92;1.13;;;6.60;99.90;;;;;;5116597;27;20047;-77
2022/01/23 14:37:28;;;;;;;6.93;0.80;;;6.60;99.90;;;;;;5142300;27;20126;-77
2022/01/23 14:39:54;;;;;;;1.55;0.70;;;6.60;99.90;;;;;;5127598;27;20054;-78
2022/01/23 14:42:21;;;;;;;1.80;1.10;;;6.60;99.90;;;;;;5146886;27;20061;-79
2022/01/23 14:44:48;;;;;;;4.25;1.00;;;6.60;99.90;;;;;;5134266;27;20054;-78
2022/01/23 14:47:14;;;;;;;10.38;1.33;;;6.50;99.90;;;;;;5135443;27;20043;-78
2022/01/23 14:49:45;;;;;;;2.97;1.50;;;6.50;99.90;;;;;;5121766;27;20497;-78
2022/01/23 14:52:13;;;;;;;5.75;1.52;;;6.50;99.90;;;;;;5141919;27;20112;-78
2022/01/23 14:54:40;;;;;;;4.57;1.60;;;6.50;99.90;;;;;;5126447;27;20050;-79
2022/01/23 14:57:06;;;;;;;1.60;1.50;;;6.50;99.90;;;;;;5139674;27;20045;-78
2022/01/23 14:59:33;;;;;;;1.52;1.40;;;6.50;99.90;;;;;;5121437;27;20051;-78
2022/01/23 15:01:59;;;;;;;5.15;2.30;;;6.50;99.90;;;;;;5146902;27;20059;-77
2022/01/23 15:04:26;;;;;;;5.25;1.98;;;6.50;99.90;;;;;;5143041;27;20046;-78
2022/01/23 15:06:53;;;;;;;3.13;1.52;;;6.40;99.90;;;;;;5127974;27;20042;-78
2022/01/23 15:09:19;;;;;;;2.10;1.60;;;6.40;99.90;;;;;;5144834;27;20055;-78
2022/01/23 15:11:46;;;;;;;2.08;1.88;;;6.40;99.90;;;;;;5130906;27;20051;-78
2022/01/23 15:14:12;;;;;;;2.10;1.90;;;6.40;99.90;;;;;;5150897;27;20042;-77
2022/01/23 15:16:39;;;;;;;2.72;1.85;;;6.40;99.90;;;;;;5127300;27;20054;-78
2022/01/23 15:19:05;;;;;;;3.28;2.40;;;6.40;99.90;;;;;;5129234;27;20047;-78
2022/01/23 15:21:32;;;;;;;2.65;1.63;;;6.40;99.90;;;;;;5146670;27;20046;-78
2022/01/23 15:23:58;;;;;;;2.15;1.77;;;6.40;99.90;;;;;;5150998;27;20053;-77
2022/01/23 15:26:25;;;;;;;2.13;1.60;;;6.40;99.90;;;;;;5131030;27;20681;-78
2022/01/23 15:28:51;;;;;;;2.13;1.90;;;6.30;99.90;;;;;;5137914;27;20513;-77
2022/01/23 15:31:18;;;;;;;5.18;1.58;;;6.30;99.90;;;;;;5129805;27;20059;-77
2022/01/23 15:33:44;;;;;;;4.32;2.33;;;6.40;99.90;;;;;;5135466;27;20058;-77
2022/01/23 15:36:11;;;;;;;6.47;2.47;;;6.30;99.90;;;;;;5140918;27;20051;-77